Time;durP1;ratioP1;P1;durP2;ratioP2;P2;SDS_P1;SDS_P2;PMS_P1;PMS_P2;Temp;Humidity;BMP_temperature;BMP_pressure;BME280_temperature;BME280_humidity;BME280_pressure;Samples;Min_cycle;Max_cycle;Signal;HPM_P1;HPM_P2
2023/06/15 00:01:07;;;;;;;20.10;8.60;;;;;;;17.02;66.54;101672.34;4977573;28;20086;-68
2023/06/15 00:03:32;;;;;;;19.60;8.27;;;;;;;16.93;67.22;101669.75;4984182;28;20034;-65
2023/06/15 00:05:57;;;;;;;21.98;8.85;;;;;;;16.85;66.31;101663.56;4985000;28;20041;-66
2023/06/15 00:08:23;;;;;;;19.98;9.00;;;;;;;16.73;67.43;101672.53;4986485;28;20027;-60
2023/06/15 00:10:49;;;;;;;18.77;8.60;;;;;;;16.51;69.06;101666.50;4987361;28;20035;-62
2023/06/15 00:13:15;;;;;;;19.85;8.60;;;;;;;16.45;70.56;101671.88;4984956;28;20047;-87
2023/06/15 00:15:40;;;;;;;19.60;8.57;;;;;;;16.44;70.92;101664.75;4988061;28;20533;-87
2023/06/15 00:18:06;;;;;;;19.95;8.70;;;;;;;16.43;71.21;101671.91;4985133;28;20031;-87
2023/06/15 00:20:31;;;;;;;18.65;8.10;;;;;;;16.49;71.81;101661.16;4987356;28;20034;-86
2023/06/15 00:22:59;;;;;;;19.83;9.15;;;;;;;16.43;71.98;101673.69;4985664;28;20042;-87
2023/06/15 00:25:24;;;;;;;19.80;8.63;;;;;;;16.46;71.74;101668.31;4986473;28;20491;-86
2023/06/15 00:27:50;;;;;;;19.40;8.27;;;;;;;16.32;72.78;101669.28;4986626;28;20038;-86
2023/06/15 00:30:16;;;;;;;20.90;9.20;;;;;;;16.29;73.05;101666.63;4985035;28;20381;-86
2023/06/15 00:32:41;;;;;;;19.83;8.93;;;;;;;16.27;74.22;101671.09;4988314;28;20038;-86
2023/06/15 00:35:07;;;;;;;18.45;8.50;;;;;;;16.25;75.77;101672.91;4980463;28;20050;-86
2023/06/15 00:37:33;;;;;;;19.80;8.95;;;;;;;16.09;77.47;101674.78;4987381;28;20405;-86
2023/06/15 00:39:58;;;;;;;19.25;8.32;;;;;;;15.94;78.82;101683.72;4985628;28;20110;-86
2023/06/15 00:42:23;;;;;;;18.48;8.30;;;;;;;15.86;80.85;101682.88;4985836;28;20081;-85
2023/06/15 00:44:49;;;;;;;19.00;8.20;;;;;;;15.81;80.71;101685.59;4986371;28;20034;-86
2023/06/15 00:47:20;;;;;;;18.33;8.10;;;;;;;15.74;81.31;101686.47;4984837;28;20090;-86
2023/06/15 00:49:46;;;;;;;19.37;8.27;;;;;;;15.81;82.64;101685.59;4986863;28;20058;-85
2023/06/15 00:52:14;;;;;;;18.38;8.40;;;;;;;15.84;82.29;101687.31;4984154;28;20055;-86
2023/06/15 00:54:40;;;;;;;19.25;8.52;;;;;;;15.81;82.57;101690.91;4987606;28;20038;-86
2023/06/15 00:57:08;;;;;;;19.00;8.63;;;;;;;15.66;83.94;101681.13;4984139;28;20062;-66
2023/06/15 00:59:34;;;;;;;19.17;8.70;;;;;;;15.66;86.35;101681.13;4986787;28;20034;-66
2023/06/15 01:01:59;;;;;;;19.23;8.77;;;;;;;15.56;89.33;101684.72;4983863;28;20126;-68
2023/06/15 01:04:25;;;;;;;19.70;9.02;;;;;;;15.51;90.63;101683.88;4984312;28;20038;-68
2023/06/15 01:06:56;;;;;;;19.00;9.07;;;;;;;15.37;92.99;101693.66;4985935;28;20037;-70
2023/06/15 01:09:23;;;;;;;19.08;8.93;;;;;;;15.37;91.84;101694.53;4985292;28;20084;-68
2023/06/15 01:11:55;;;;;;;19.02;8.70;;;;;;;15.25;93.63;101687.47;4986001;28;20030;-72
2023/06/15 01:14:25;;;;;;;19.38;9.10;;;;;;;15.25;94.15;101681.25;4984863;28;20030;-66
2023/06/15 01:16:57;;;;;;;19.35;8.70;;;;;;;15.21;94.74;101687.47;4985065;28;20026;-65
2023/06/15 01:20:05;;;;;;;18.88;9.10;;;;;;;15.16;93.61;101687.50;4985263;28;20030;-69
2023/06/15 01:22:55;;;;;;;18.38;8.75;;;;;;;15.12;95.57;101683.06;4984864;28;20050;-65
2023/06/15 01:25:37;;;;;;;19.40;9.05;;;;;;;15.01;98.19;101684.84;4982737;28;20039;-68
2023/06/15 01:28:05;;;;;;;19.15;9.02;;;;;;;14.97;98.88;101687.50;4984047;28;20045;-68
2023/06/15 01:30:40;;;;;;;20.52;9.55;;;;;;;14.95;99.54;101688.38;4985994;28;20081;-68
2023/06/15 01:33:05;;;;;;;19.58;9.52;;;;;;;14.95;99.71;101694.59;4983631;28;20525;-68
2023/06/15 01:35:31;;;;;;;20.13;10.05;;;;;;;14.86;100.00;101691.06;4985684;28;20031;-61
2023/06/15 01:37:56;;;;;;;19.08;9.25;;;;;;;14.79;100.00;101695.47;4984764;28;20473;-61
2023/06/15 01:40:22;;;;;;;18.95;9.38;;;;;;;14.69;100.00;101688.38;4984580;28;20494;-60
2023/06/15 01:42:49;;;;;;;19.35;9.50;;;;;;;14.70;100.00;101692.81;4985690;28;20034;-60
2023/06/15 01:45:15;;;;;;;20.10;9.70;;;;;;;14.69;100.00;101689.25;4983419;28;20355;-60
2023/06/15 01:47:42;;;;;;;19.52;9.50;;;;;;;14.59;100.00;101695.41;4986410;28;20053;-65
2023/06/15 01:50:09;;;;;;;19.92;9.82;;;;;;;14.63;100.00;101703.47;4979345;28;20390;-67
2023/06/15 01:52:35;;;;;;;20.92;9.73;;;;;;;14.64;100.00;101699.91;4986106;28;20027;-70
2023/06/15 01:55:00;;;;;;;19.10;9.25;;;;;;;14.58;100.00;101699.88;4983995;28;20034;-71
2023/06/15 01:57:26;;;;;;;19.67;9.68;;;;;;;14.55;100.00;101699.88;4984698;28;20026;-69
2023/06/15 01:59:54;;;;;;;20.70;10.52;;;;;;;14.47;100.00;101701.63;4985126;28;20081;-68
2023/06/15 02:02:20;;;;;;;21.55;10.45;;;;;;;14.44;100.00;101698.94;4983603;28;20106;-67
2023/06/15 02:04:45;;;;;;;20.98;10.45;;;;;;;14.51;100.00;101694.53;4985620;28;20092;-70
2023/06/15 02:07:11;;;;;;;19.65;9.93;;;;;;;14.55;100.00;101696.34;4982858;28;20035;-68
2023/06/15 02:09:36;;;;;;;19.73;9.55;;;;;;;14.41;100.00;101696.28;4985802;28;20018;-68
2023/06/15 02:12:01;;;;;;;19.38;10.10;;;;;;;14.28;100.00;101706.00;4983331;28;20492;-68
2023/06/15 02:14:27;;;;;;;19.65;9.32;;;;;;;14.19;100.00;101700.69;4984694;28;20493;-68
2023/06/15 02:16:53;;;;;;;19.17;9.10;;;;;;;14.01;100.00;101694.41;4984433;28;20033;-69
2023/06/15 02:19:22;;;;;;;19.27;8.77;;;;;;;14.03;100.00;101694.41;4983247;28;20027;-68
2023/06/15 02:21:48;;;;;;;18.17;8.45;;;;;;;14.08;100.00;101700.63;4985149;28;20034;-69
2023/06/15 02:24:15;;;;;;;19.95;8.63;;;;;;;14.10;100.00;101698.88;4982516;28;20122;-70
2023/06/15 02:26:40;;;;;;;18.85;8.27;;;;;;;14.20;100.00;101699.78;4985713;28;20041;-67
2023/06/15 02:29:06;;;;;;;20.40;8.55;;;;;;;14.21;100.00;101710.44;4981819;28;20026;-68
2023/06/15 02:31:31;;;;;;;19.67;8.50;;;;;;;14.05;100.00;101713.91;4984753;28;20029;-68
2023/06/15 02:33:57;;;;;;;19.55;8.35;;;;;;;13.96;100.00;101720.06;4983606;28;20069;-68
2023/06/15 02:36:22;;;;;;;18.80;7.82;;;;;;;13.99;100.00;101724.53;4983601;28;20489;-64
2023/06/15 02:38:48;;;;;;;18.98;7.28;;;;;;;14.07;100.00;101715.69;4984898;28;20089;-68
2023/06/15 02:41:14;;;;;;;18.73;8.02;;;;;;;14.00;100.00;101716.56;4982315;28;20022;-69
2023/06/15 02:43:39;;;;;;;19.88;7.60;;;;;;;13.99;100.00;101716.56;4985634;28;20038;-68
2023/06/15 02:46:05;;;;;;;18.52;7.50;;;;;;;13.94;100.00;101721.84;4982423;28;20423;-64
2023/06/15 02:48:30;;;;;;;19.02;7.95;;;;;;;13.89;100.00;101720.94;4984462;28;20034;-69
2023/06/15 02:50:56;;;;;;;19.27;7.68;;;;;;;13.83;100.00;101724.44;4983879;28;20062;-68
2023/06/15 02:53:22;;;;;;;19.13;9.10;;;;;;;13.73;100.00;101718.22;4983349;28;20105;-65
2023/06/15 02:55:47;;;;;;;20.75;9.48;;;;;;;13.85;100.00;101720.03;4984840;28;20029;-67
2023/06/15 02:58:13;;;;;;;18.85;8.35;;;;;;;13.77;100.00;101727.06;4982155;28;20034;-85
2023/06/15 03:00:40;;;;;;;20.40;9.10;;;;;;;13.72;100.00;101723.53;4978207;28;20398;-84
2023/06/15 03:03:07;;;;;;;20.35;9.82;;;;;;;13.72;100.00;101727.06;4985037;28;20034;-81
2023/06/15 03:05:32;;;;;;;19.67;8.90;;;;;;;13.68;100.00;101727.91;4982548;28;20117;-72
2023/06/15 03:07:58;;;;;;;19.50;9.05;;;;;;;13.76;100.00;101734.16;4983803;28;20114;-84
2023/06/15 03:10:23;;;;;;;20.15;9.32;;;;;;;13.79;100.00;101730.66;4983866;28;20034;-85
2023/06/15 03:12:49;;;;;;;21.40;9.55;;;;;;;13.66;100.00;101732.34;4982578;28;20543;-84
2023/06/15 03:15:14;;;;;;;20.20;9.73;;;;;;;13.63;100.00;101729.69;4984973;28;20030;-84
2023/06/15 03:17:40;;;;;;;19.83;9.27;;;;;;;13.56;100.00;101728.75;4982067;28;20023;-84
2023/06/15 03:20:10;;;;;;;19.35;9.07;;;;;;;13.53;100.00;101723.41;4984624;28;20029;-85
2023/06/15 03:22:36;;;;;;;20.23;9.55;;;;;;;13.41;100.00;101726.88;4981722;28;20074;-85
2023/06/15 03:25:03;;;;;;;19.17;9.05;;;;;;;13.46;100.00;101728.69;4984499;28;20039;-85
2023/06/15 03:27:29;;;;;;;19.77;9.00;;;;;;;13.41;100.00;101723.31;4983023;28;20069;-84
2023/06/15 03:29:56;;;;;;;19.45;9.63;;;;;;;13.38;100.00;101725.97;4983215;28;20054;-80
2023/06/15 03:32:22;;;;;;;21.30;10.65;;;;;;;13.37;100.00;101729.50;4984031;28;20532;-76
2023/06/15 03:34:47;;;;;;;20.35;9.32;;;;;;;13.38;100.00;101729.53;4982042;28;20035;-80
2023/06/15 03:37:13;;;;;;;19.95;10.20;;;;;;;13.39;100.00;101727.75;4985009;28;20034;-81
2023/06/15 03:39:38;;;;;;;22.00;11.30;;;;;;;13.37;100.00;101727.75;4978002;28;20390;-85
2023/06/15 03:42:05;;;;;;;21.75;10.95;;;;;;;13.44;100.00;101723.38;4988055;28;20397;-85
2023/06/15 03:44:30;;;;;;;21.30;10.93;;;;;;;13.37;100.00;101725.09;4986233;28;20571;-80
2023/06/15 03:46:56;;;;;;;22.20;10.63;;;;;;;13.40;100.00;101726.88;4987105;28;20027;-86
2023/06/15 03:49:21;;;;;;;20.58;10.38;;;;;;;13.43;100.00;101725.13;4987524;28;20057;-84
2023/06/15 03:51:47;;;;;;;21.58;10.88;;;;;;;13.37;100.00;101722.44;4985621;28;20031;-85
2023/06/15 03:54:12;;;;;;;22.85;11.55;;;;;;;13.37;100.00;101725.09;4988689;28;20397;-85
2023/06/15 03:56:38;;;;;;;23.02;11.32;;;;;;;13.42;100.00;101725.09;4985240;28;20050;-67
2023/06/15 03:59:04;;;;;;;22.35;11.57;;;;;;;13.40;100.00;101729.53;4986745;28;20030;-64
2023/06/15 04:01:29;;;;;;;22.83;11.05;;;;;;;13.46;100.00;101724.25;4986248;28;20367;-68
2023/06/15 04:03:54;;;;;;;22.42;11.88;;;;;;;13.49;100.00;101731.34;4986411;28;20039;-68
2023/06/15 04:06:24;;;;;;;22.08;11.80;;;;;;;13.49;100.00;101734.00;4987455;28;20038;-68
2023/06/15 04:08:50;;;;;;;21.83;11.68;;;;;;;13.40;100.00;101734.84;4985839;28;20090;-70
2023/06/15 04:11:16;;;;;;;21.98;12.65;;;;;;;13.48;100.00;101737.53;4987916;28;20054;-69
2023/06/15 04:13:41;;;;;;;22.48;13.07;;;;;;;13.56;100.00;101736.72;4984999;28;20286;-68
2023/06/15 04:16:07;;;;;;;21.35;13.02;;;;;;;13.67;100.00;101743.84;4987862;28;20042;-63
2023/06/15 04:18:32;;;;;;;22.05;13.52;;;;;;;13.72;100.00;101736.81;4984295;28;20038;-67
2023/06/15 04:20:58;;;;;;;23.83;13.82;;;;;;;13.83;100.00;101747.47;4986689;28;20030;-67
2023/06/15 04:23:23;;;;;;;21.38;12.55;;;;;;;13.83;100.00;101751.03;4986489;28;20046;-67
2023/06/15 04:25:49;;;;;;;23.08;13.40;;;;;;;13.87;100.00;101757.25;4985171;28;20145;-68
2023/06/15 04:28:16;;;;;;;22.15;12.70;;;;;;;13.94;100.00;101759.94;4988084;28;20073;-61
2023/06/15 04:30:45;;;;;;;23.88;13.35;;;;;;;13.90;100.00;101759.94;4984548;28;20437;-65
2023/06/15 04:33:13;;;;;;;24.17;14.18;;;;;;;13.98;100.00;101754.63;4987881;28;20106;-67
2023/06/15 04:35:45;;;;;;;25.35;14.00;;;;;;;13.96;100.00;101767.91;4984460;28;20050;-68
2023/06/15 04:38:13;;;;;;;25.75;14.00;;;;;;;14.00;100.00;101763.53;4980765;28;20540;-65
2023/06/15 04:40:41;;;;;;;31.52;14.63;;;;;;;14.14;100.00;101764.47;4987603;28;20117;-68
2023/06/15 04:43:08;;;;;;;30.75;14.82;;;;;;;14.09;100.00;101766.22;4984503;28;20039;-67
2023/06/15 04:45:34;;;;;;;28.48;15.13;;;;;;;14.11;100.00;101765.34;4986985;28;20034;-63
2023/06/15 04:47:59;;;;;;;27.05;15.32;;;;;;;14.13;100.00;101763.56;4984157;28;20031;-68
2023/06/15 04:50:25;;;;;;;25.20;15.15;;;;;;;14.20;100.00;101760.94;4985624;28;20489;-68
2023/06/15 04:52:50;;;;;;;24.45;15.00;;;;;;;14.30;100.00;101776.94;4985800;28;20081;-68
2023/06/15 04:55:16;;;;;;;26.23;15.77;;;;;;;14.41;100.00;101776.09;4984257;28;20050;-68
2023/06/15 04:57:41;;;;;;;26.55;16.80;;;;;;;14.51;100.00;101769.91;4987644;28;20389;-64
2023/06/15 05:00:07;;;;;;;27.77;17.60;;;;;;;14.61;100.00;101774.41;4984308;28;20030;-68
2023/06/15 05:02:33;;;;;;;27.58;17.23;;;;;;;14.68;100.00;101774.41;4986459;28;20039;-68
2023/06/15 05:04:58;;;;;;;26.30;17.42;;;;;;;14.78;100.00;101770.88;4985292;28;20053;-68
2023/06/15 05:07:23;;;;;;;28.38;17.58;;;;;;;14.82;100.00;101775.31;4985106;28;20027;-66
2023/06/15 05:09:49;;;;;;;27.35;17.42;;;;;;;14.91;100.00;101770.03;4986426;28;20084;-67
2023/06/15 05:12:14;;;;;;;25.83;17.50;;;;;;;15.08;100.00;101774.47;4983865;28;20027;-67
2023/06/15 05:14:39;;;;;;;26.02;17.55;;;;;;;15.20;100.00;101778.91;4987056;28;20069;-68
2023/06/15 05:17:05;;;;;;;26.25;17.98;;;;;;;15.32;100.00;101774.47;4984242;28;20122;-67
2023/06/15 05:19:31;;;;;;;26.75;19.02;;;;;;;15.46;100.00;101778.91;4985972;28;20039;-60
2023/06/15 05:22:01;;;;;;;27.02;18.35;;;;;;;15.63;100.00;101777.09;4985077;28;20022;-68
2023/06/15 05:24:27;;;;;;;26.77;18.02;;;;;;;15.69;100.00;101773.53;4979417;28;20030;-59
2023/06/15 05:26:52;;;;;;;27.30;18.38;;;;;;;15.79;100.00;101779.78;4974861;28;20045;-71
2023/06/15 05:29:18;;;;;;;24.40;17.77;;;;;;;15.90;100.00;101780.63;4974780;28;20110;-61
2023/06/15 05:31:44;;;;;;;27.38;18.05;;;;;;;15.92;100.00;101776.16;4976526;28;20031;-63
2023/06/15 05:34:10;;;;;;;25.00;18.00;;;;;;;16.02;100.00;101783.25;4973820;28;20462;-71
2023/06/15 05:36:35;;;;;;;27.48;17.48;;;;;;;16.17;100.00;101776.09;4975276;28;20054;-68
2023/06/15 05:39:01;;;;;;;26.38;18.25;;;;;;;16.28;100.00;101790.28;4981931;28;20035;-61
2023/06/15 05:41:26;;;;;;;26.48;18.77;;;;;;;16.37;100.00;101779.53;4977676;28;20057;-75
2023/06/15 05:43:51;;;;;;;26.60;19.23;;;;;;;16.46;100.00;101793.75;4977725;28;20109;-79
2023/06/15 05:46:17;;;;;;;25.27;18.60;;;;;;;16.52;100.00;101785.69;4982368;28;20027;-65
2023/06/15 05:48:42;;;;;;;25.63;19.80;;;;;;;16.52;100.00;101793.72;4978994;28;20031;-76
2023/06/15 05:51:07;;;;;;;25.52;19.33;;;;;;;16.61;100.00;101790.97;4976992;28;20499;-78
2023/06/15 05:53:33;;;;;;;26.80;20.40;;;;;;;16.66;100.00;101796.28;4976684;28;20113;-72
2023/06/15 05:55:58;;;;;;;26.08;19.75;;;;;;;16.76;100.00;101794.44;4977662;28;20035;-77
2023/06/15 05:58:23;;;;;;;26.55;20.13;;;;;;;16.85;100.00;101797.09;4980818;28;20608;-68
2023/06/15 06:00:49;;;;;;;26.45;19.73;;;;;;;16.92;100.00;101792.59;4977514;28;20037;-70
2023/06/15 06:03:14;;;;;;;27.27;19.10;;;;;;;17.01;100.00;101790.75;4982168;28;20027;-81
2023/06/15 06:05:40;;;;;;;27.98;19.70;;;;;;;17.13;100.00;101788.91;4978357;28;20080;-74
2023/06/15 06:08:06;;;;;;;26.48;19.48;;;;;;;17.23;100.00;101787.91;4971885;28;20025;-71
2023/06/15 06:10:31;;;;;;;25.15;19.02;;;;;;;17.26;100.00;101787.88;4976086;28;20035;-77
2023/06/15 06:12:57;;;;;;;25.95;19.13;;;;;;;17.34;100.00;101783.34;4971860;28;20117;-78
2023/06/15 06:15:22;;;;;;;25.67;18.65;;;;;;;17.41;100.00;101787.72;4973582;28;20023;-64
2023/06/15 06:17:47;;;;;;;27.05;18.88;;;;;;;17.51;99.23;101787.66;4980008;28;20507;-77
2023/06/15 06:20:13;;;;;;;26.88;17.92;;;;;;;17.58;99.46;101778.69;4973945;28;20429;-61
2023/06/15 06:22:38;;;;;;;25.42;18.08;;;;;;;17.67;96.35;101791.09;4976786;28;20070;-78
2023/06/15 06:25:04;;;;;;;26.92;16.48;;;;;;;17.78;94.75;101782.03;4977259;28;20081;-77
2023/06/15 06:27:30;;;;;;;25.10;16.17;;;;;;;17.88;94.59;101787.28;4978149;28;20038;-74
2023/06/15 06:29:55;;;;;;;23.55;15.50;;;;;;;17.97;91.50;101789.91;4980276;28;20485;-81
2023/06/15 06:32:20;;;;;;;24.67;15.55;;;;;;;18.07;89.47;101791.56;4975029;28;20043;-72
2023/06/15 06:34:46;;;;;;;23.73;14.82;;;;;;;18.15;90.48;101788.78;4973059;28;20039;-71
2023/06/15 06:37:11;;;;;;;24.27;14.27;;;;;;;18.26;85.87;101780.59;4976987;28;20031;-76
2023/06/15 06:39:37;;;;;;;24.63;13.75;;;;;;;18.35;86.36;101787.63;4971998;28;20057;-75
2023/06/15 06:42:02;;;;;;;24.58;13.55;;;;;;;18.44;85.21;101791.09;4974565;28;20042;-69
2023/06/15 06:44:28;;;;;;;22.88;13.10;;;;;;;18.53;83.72;101792.75;4973193;28;20377;-68
2023/06/15 06:46:53;;;;;;;22.38;12.60;;;;;;;18.63;81.02;101783.69;4974987;28;20034;-67
2023/06/15 06:49:19;;;;;;;24.02;12.23;;;;;;;18.76;82.11;101794.22;4975722;28;20038;-70
2023/06/15 06:51:44;;;;;;;23.88;12.27;;;;;;;18.85;80.93;101793.19;4978971;28;20080;-65
2023/06/15 06:54:09;;;;;;;22.77;11.50;;;;;;;18.95;78.32;101792.19;4976735;28;20030;-70
2023/06/15 06:56:35;;;;;;;21.05;11.30;;;;;;;19.11;77.78;101793.69;4976776;28;20054;-68
2023/06/15 06:59:00;;;;;;;23.35;11.60;;;;;;;19.20;77.14;101794.47;4977241;28;20540;-68
2023/06/15 07:01:26;;;;;;;22.50;11.20;;;;;;;19.26;74.29;101795.22;4978095;28;20035;-66
2023/06/15 07:03:51;;;;;;;24.00;11.27;;;;;;;19.35;73.37;101799.56;4973367;28;20031;-71
2023/06/15 07:06:17;;;;;;;23.13;11.27;;;;;;;19.43;75.09;101794.94;4975627;28;20027;-69
2023/06/15 07:08:42;;;;;;;24.00;11.23;;;;;;;19.51;72.97;101792.13;4982506;28;20481;-70
2023/06/15 07:11:08;;;;;;;23.83;10.63;;;;;;;19.65;72.04;101792.75;4978695;28;20493;-67
2023/06/15 07:13:34;;;;;;;22.50;10.18;;;;;;;19.75;69.42;101797.97;4974763;28;20026;-60
2023/06/15 07:15:59;;;;;;;20.33;9.40;;;;;;;19.84;66.00;101787.09;4973589;28;20027;-67
2023/06/15 07:18:25;;;;;;;22.23;9.60;;;;;;;19.93;67.06;101791.38;4977361;28;20117;-68
2023/06/15 07:20:54;;;;;;;21.17;9.55;;;;;;;20.01;65.58;101793.00;4975460;28;20045;-61
2023/06/15 07:23:21;;;;;;;21.08;9.40;;;;;;;20.11;65.44;101793.72;4977276;28;20054;-81
2023/06/15 07:25:47;;;;;;;21.77;9.60;;;;;;;20.21;66.07;101802.44;4983281;28;20562;-81
2023/06/15 07:28:14;;;;;;;19.80;8.80;;;;;;;20.30;64.65;101790.63;4981137;28;20133;-81
2023/06/15 07:30:39;;;;;;;20.67;8.45;;;;;;;20.44;64.13;101793.88;4980722;28;20058;-81
2023/06/15 07:33:04;;;;;;;19.23;8.10;;;;;;;20.61;63.77;101803.41;4978246;28;20079;-76
2023/06/15 07:35:30;;;;;;;20.10;7.97;;;;;;;20.72;61.08;101802.25;4976246;28;20039;-79
2023/06/15 07:37:55;;;;;;;20.42;7.53;;;;;;;20.80;59.33;101801.19;4988725;28;20030;-81
2023/06/15 07:40:20;;;;;;;19.70;7.15;;;;;;;20.91;60.04;101807.19;4986054;28;20114;-83
2023/06/15 07:42:46;;;;;;;19.42;7.38;;;;;;;21.00;58.46;101798.03;4987061;28;20034;-83
2023/06/15 07:45:11;;;;;;;21.00;7.18;;;;;;;21.09;58.52;101795.13;4987529;28;20164;-81
2023/06/15 07:47:37;;;;;;;20.05;7.40;;;;;;;21.17;58.00;101803.00;4986037;28;20026;-80
2023/06/15 07:50:03;;;;;;;20.23;6.80;;;;;;;21.30;56.65;101806.25;4988552;28;20113;-75
2023/06/15 07:52:28;;;;;;;19.42;6.50;;;;;;;21.45;56.38;101810.34;4985227;28;20030;-73
2023/06/15 07:54:53;;;;;;;21.10;7.25;;;;;;;21.56;54.66;101797.53;4987955;28;20093;-68
2023/06/15 07:57:19;;;;;;;20.88;7.03;;;;;;;21.67;55.32;101806.22;4986512;28;20018;-73
2023/06/15 07:59:44;;;;;;;19.08;6.40;;;;;;;21.74;54.21;101804.22;4986926;28;20474;-73
2023/06/15 08:02:10;;;;;;;18.52;5.70;;;;;;;21.90;53.02;101805.59;4987360;28;20041;-72
2023/06/15 08:04:35;;;;;;;18.00;5.82;;;;;;;22.08;52.66;101809.56;4985527;28;20066;-72
2023/06/15 08:07:00;;;;;;;18.50;5.60;;;;;;;22.28;52.23;101805.44;4988302;28;20030;-69
2023/06/15 08:09:26;;;;;;;17.92;5.35;;;;;;;22.39;49.05;101802.44;4985041;28;20035;-73
2023/06/15 08:11:51;;;;;;;18.05;5.68;;;;;;;22.43;49.78;101798.72;4987440;28;20030;-70
2023/06/15 08:14:19;;;;;;;15.20;5.28;;;;;;;22.57;48.57;101803.66;4986524;28;20091;-66
2023/06/15 08:16:44;;;;;;;17.67;5.18;;;;;;;22.74;47.39;101800.47;4986629;28;20556;-67
2023/06/15 08:19:12;;;;;;;15.90;5.10;;;;;;;22.77;47.16;101800.34;4987157;28;20448;-73
2023/06/15 08:21:41;;;;;;;15.07;5.10;;;;;;;22.86;47.67;101801.88;4985905;28;20601;-70
2023/06/15 08:24:07;;;;;;;16.13;5.00;;;;;;;23.11;47.21;101799.28;4986157;28;20043;-67
2023/06/15 08:26:32;;;;;;;18.70;5.25;;;;;;;23.28;46.28;101807.69;4984809;28;20046;-70
2023/06/15 08:28:58;;;;;;;17.25;5.13;;;;;;;23.45;45.64;101806.25;4986671;28;20026;-73
2023/06/15 08:31:23;;;;;;;16.52;5.05;;;;;;;23.60;45.01;101803.00;4984994;28;20065;-74
2023/06/15 08:33:49;;;;;;;15.80;5.00;;;;;;;23.71;42.88;101799.94;4987039;28;20027;-70
2023/06/15 08:36:15;;;;;;;14.43;4.50;;;;;;;23.78;41.46;101796.09;4978805;28;20078;-66
2023/06/15 08:38:41;;;;;;;16.73;4.88;;;;;;;23.76;41.24;101802.47;4975048;28;20034;-63
2023/06/15 08:41:06;;;;;;;15.77;4.60;;;;;;;23.83;42.22;101801.31;4980626;28;20045;-68
2023/06/15 08:43:32;;;;;;;16.95;4.80;;;;;;;24.05;42.68;101795.16;4977596;28;20120;-62
2023/06/15 08:45:59;;;;;;;16.38;4.90;;;;;;;24.20;41.80;101799.97;4982902;28;20034;-68
2023/06/15 08:48:27;;;;;;;18.05;5.50;;;;;;;24.39;41.54;101796.56;4963302;28;20034;-63
2023/06/15 08:50:53;;;;;;;15.05;4.75;;;;;;;24.52;40.22;101800.53;4977933;28;20101;-63
2023/06/15 08:53:21;;;;;;;15.77;4.60;;;;;;;24.73;40.65;101797.97;4981140;28;20035;-61
2023/06/15 08:55:47;;;;;;;16.58;4.88;;;;;;;24.92;40.06;101795.41;4972479;28;20023;-65
2023/06/15 08:58:12;;;;;;;14.32;4.72;;;;;;;25.19;40.36;101796.97;4976505;28;20125;-64
2023/06/15 09:00:38;;;;;;;16.35;4.93;;;;;;;25.24;38.58;101799.47;4978927;28;20069;-67
2023/06/15 09:03:06;;;;;;;16.67;4.90;;;;;;;25.36;39.61;101796.25;4976750;28;20104;-65
2023/06/15 09:05:32;;;;;;;16.73;5.05;;;;;;;25.53;38.38;101791.97;4978621;28;20019;-72
2023/06/15 09:07:58;;;;;;;15.55;4.80;;;;;;;25.54;38.53;101788.28;4978106;28;20489;-74
2023/06/15 09:10:24;;;;;;;17.13;5.10;;;;;;;25.62;38.00;101793.41;4975832;28;20113;-72
2023/06/15 09:12:55;;;;;;;13.52;4.72;;;;;;;25.75;37.51;101798.19;4977372;28;20517;-76
2023/06/15 09:15:26;;;;;;;16.33;4.38;;;;;;;25.72;37.12;101798.31;4981150;28;20045;-68
2023/06/15 09:18:02;;;;;;;16.00;5.13;;;;;;;25.89;36.24;101800.28;4979100;28;20106;-68
2023/06/15 09:20:36;;;;;;;16.73;5.07;;;;;;;26.03;37.07;101796.97;4978600;28;20033;-68
2023/06/15 09:23:03;;;;;;;16.73;5.13;;;;;;;25.98;36.02;101796.28;4974053;28;20461;-62
2023/06/15 09:25:33;;;;;;;17.10;5.10;;;;;;;26.35;36.35;101799.13;4977868;28;20090;-60
2023/06/15 09:28:00;;;;;;;17.73;4.78;;;;;;;26.74;36.03;101800.94;4976306;28;20466;-60
2023/06/15 09:30:34;;;;;;;15.23;4.75;;;;;;;26.75;34.90;101800.84;4973156;28;20023;-64
2023/06/15 09:33:10;;;;;;;16.85;4.95;;;;;;;27.05;34.97;101791.25;4971060;28;20067;-62
2023/06/15 09:35:35;;;;;;;16.60;4.65;;;;;;;27.58;34.73;101787.66;4973377;28;20015;-69
2023/06/15 09:38:01;;;;;;;17.05;5.18;;;;;;;28.10;34.25;101797.56;4980458;28;20105;-59
2023/06/15 09:40:28;;;;;;;16.92;5.00;;;;;;;28.23;33.37;101786.03;4975102;28;20101;-59
2023/06/15 09:42:56;;;;;;;17.77;4.80;;;;;;;28.39;32.79;101797.78;4979013;28;20085;-68
2023/06/15 09:45:22;;;;;;;14.43;4.60;;;;;;;28.39;33.31;101786.94;4986704;28;20473;-60
2023/06/15 09:47:55;;;;;;;15.40;4.85;;;;;;;28.43;32.41;101787.66;4985891;28;20077;-60
2023/06/15 09:50:26;;;;;;;16.13;4.75;;;;;;;28.34;32.53;101786.31;4979449;28;20473;-63
2023/06/15 09:52:52;;;;;;;17.87;5.23;;;;;;;28.63;32.64;101784.69;4986293;28;20496;-69
2023/06/15 09:55:18;;;;;;;17.30;4.90;;;;;;;28.49;31.88;101790.88;4983046;28;20031;-61
2023/06/15 09:57:44;;;;;;;15.90;4.75;;;;;;;28.21;31.71;101787.94;4986331;28;20540;-66
2023/06/15 10:00:11;;;;;;;15.52;5.05;;;;;;;27.99;31.20;101791.88;4979336;28;20436;-69
2023/06/15 10:02:38;;;;;;;13.95;5.05;;;;;;;27.80;31.55;101787.38;4984474;28;20473;-68
2023/06/15 10:05:08;;;;;;;14.45;4.80;;;;;;;27.99;32.19;101797.31;4983045;28;20437;-69
2023/06/15 10:07:38;;;;;;;15.18;4.90;;;;;;;29.16;30.12;101787.97;4985387;28;20117;-68
2023/06/15 10:10:06;;;;;;;16.38;4.93;;;;;;;31.27;28.23;101791.94;4986389;28;20027;-69
2023/06/15 10:12:32;;;;;;;14.75;4.80;;;;;;;32.27;26.27;101793.16;4982492;28;20367;-69
2023/06/15 10:15:01;;;;;;;15.13;4.68;;;;;;;33.39;24.18;101793.91;4985254;28;20034;-69
2023/06/15 10:17:33;;;;;;;16.98;4.60;;;;;;;34.29;23.37;101793.22;4983479;28;20026;-69
2023/06/15 10:20:21;;;;;;;15.50;4.60;;;;;;;35.48;24.12;101793.41;4979578;28;20035;-68
2023/06/15 10:22:48;;;;;;;12.13;4.40;;;;;;;36.30;22.21;101796.19;4980160;28;20026;-69
2023/06/15 10:25:14;;;;;;;15.43;4.80;;;;;;;37.20;21.61;101787.13;4980544;28;20050;-70
2023/06/15 10:27:41;;;;;;;14.80;4.40;;;;;;;37.73;20.74;101794.91;4982651;28;20508;-68
2023/06/15 10:30:14;;;;;;;15.07;4.55;;;;;;;38.18;19.71;101788.66;4985638;28;20113;-69
2023/06/15 10:32:51;;;;;;;15.73;4.88;;;;;;;37.71;19.55;101796.91;4978599;28;20038;-69
2023/06/15 10:35:25;;;;;;;13.50;4.70;;;;;;;37.76;20.38;101789.13;4980233;28;20381;-69
2023/06/15 10:38:32;;;;;;;13.80;4.63;;;;;;;38.64;20.45;101801.66;4984332;28;20080;-66
2023/06/15 10:40:58;;;;;;;15.40;4.43;;;;;;;38.42;20.01;101798.28;4930155;28;20036;-69
2023/06/15 10:43:27;;;;;;;16.35;4.60;;;;;;;37.08;19.75;101789.16;4982475;28;20034;-70
2023/06/15 10:45:53;;;;;;;15.73;4.50;;;;;;;34.62;22.26;101791.44;4983808;28;20042;-70
2023/06/15 10:48:23;;;;;;;13.18;4.60;;;;;;;32.44;24.44;101788.28;4984488;28;20033;-69
2023/06/15 10:50:50;;;;;;;15.05;4.60;;;;;;;32.44;24.79;101791.03;4982048;28;20034;-69
2023/06/15 10:53:27;;;;;;;16.35;4.75;;;;;;;34.55;22.90;101788.31;4981432;28;20038;-61
2023/06/15 10:55:57;;;;;;;15.70;4.55;;;;;;;35.61;22.77;101788.59;4978863;28;20023;-69
2023/06/15 10:58:24;;;;;;;16.23;4.78;;;;;;;36.06;21.14;101782.78;4985100;28;20058;-65
2023/06/15 11:01:16;;;;;;;14.43;4.50;;;;;;;34.12;23.81;101782.72;4982559;28;20421;-69
2023/06/15 11:03:42;;;;;;;18.05;4.88;;;;;;;31.83;24.70;101775.31;4975793;28;20042;-67
2023/06/15 11:06:17;;;;;;;13.75;4.70;;;;;;;31.14;25.82;101775.53;4985231;28;20034;-64
2023/06/15 11:08:46;;;;;;;14.55;4.60;;;;;;;33.22;25.20;101769.72;4979303;28;20082;-60
2023/06/15 11:11:13;;;;;;;16.55;4.60;;;;;;;35.17;21.57;101774.94;4981254;28;20034;-68